Zaliv Amerika — C4ZR2 — position and weather

sailwx.info

Track history (hours):
 
Tides and Currents Weather Stations Pressure Air Temp Water Temp Dewpoint Dewpoint Depression Visibility Wind Speed Wind Dir Waves Ship Positions

Zaliv Amerika

Last reported at 2015-Jan-28 17:17 UTC. Time now 2015-Jan-28 18:18 UTC.
Position N 01°16' E 104°12'.

Length 243 m; draft 14.2 m.

Type: Tanker. MMSI: 210435000.

Date/timePositionNaut miles runAvg speedWind from/ knotsBaromVisibWave heightAir tempDewpointWater temp
2015-Jan-28 17:17N 01°16' E 104°12'912.8
2015-Jan-28 16:33N 01°15' E 104°03'1412.3
2015-Jan-28 15:23N 01°10' E 103°49'6611.3
2015-Jan-28 09:33N 01°38' E 102°49'1612.9
2015-Jan-28 08:20N 01°44' E 102°35'1012.7
2015-Jan-28 07:32N 01°49' E 102°26'  
2015-Jan-24 19:32N 01°57' E 102°15'1111.1
2015-Jan-24 18:32N 01°52' E 102°25'10 9.9
2015-Jan-24 17:31N 01°48' E 102°34'9 9.1
2015-Jan-24 16:33N 01°44' E 102°42'10 9.1
2015-Jan-24 15:29N 01°39' E 102°50'60 2.2
2015-Jan-23 12:04N 01°10' E 103°42'1 0.3
2015-Jan-23 10:09N 01°10' E 103°42'  
2015-Jan-19 20:14N 01°08' E 103°44'6 9.1
2015-Jan-19 19:32N 01°12' E 103°49'1 0.6
2015-Jan-19 18:20N 01°13' E 103°49'0 0.1
2015-Jan-19 17:20N 01°13' E 103°49'0 0.1
2015-Jan-19 16:26N 01°13' E 103°49'0 0.1
2015-Jan-19 15:07N 01°13' E 103°49'0 0.0
2015-Jan-19 13:30N 01°13' E 103°49'0 0.1
2015-Jan-19 12:30N 01°13' E 103°49'0 0.1
2015-Jan-19 11:23N 01°13' E 103°49'0 0.1
2015-Jan-19 10:08N 01°13' E 103°49'0 0.0
2015-Jan-19 09:08N 01°13' E 103°49'0 0.0
2015-Jan-19 08:19N 01°13' E 103°49'0 0.0
2015-Jan-19 06:33N 01°13' E 103°49'4 4.3
2015-Jan-19 05:33N 01°14' E 103°54'7 7.3
2015-Jan-19 04:33N 01°16' E 104°01'1211.8
2015-Jan-19 03:31N 01°17' E 104°13'  
Track history (hours):
 
Tides and Currents Weather Stations Pressure Air Temp Water Temp Dewpoint Dewpoint Depression Visibility Wind Speed Wind Dir Waves Ship Positions

Zaliv Amerika

Last reported at 2015-Jan-28 17:17 UTC. Time now 2015-Jan-28 18:18 UTC.
Position N 01°16' E 104°12'.

Length 243 m; draft 14.2 m.

Type: Tanker. MMSI: 210435000.

Date/timePositionNaut miles runAvg speedWind from/ knotsBaromVisibWave heightAir tempDewpointWater temp
2015-Jan-28 17:17N 01°16' E 104°12'912.8
2015-Jan-28 16:33N 01°15' E 104°03'1412.3
2015-Jan-28 15:23N 01°10' E 103°49'6611.3
2015-Jan-28 09:33N 01°38' E 102°49'1612.9
2015-Jan-28 08:20N 01°44' E 102°35'1012.7
2015-Jan-28 07:32N 01°49' E 102°26'  
2015-Jan-24 19:32N 01°57' E 102°15'1111.1
2015-Jan-24 18:32N 01°52' E 102°25'10 9.9
2015-Jan-24 17:31N 01°48' E 102°34'9 9.1
2015-Jan-24 16:33N 01°44' E 102°42'10 9.1
2015-Jan-24 15:29N 01°39' E 102°50'60 2.2
2015-Jan-23 12:04N 01°10' E 103°42'1 0.3
2015-Jan-23 10:09N 01°10' E 103°42'  
2015-Jan-19 20:14N 01°08' E 103°44'6 9.1
2015-Jan-19 19:32N 01°12' E 103°49'1 0.6
2015-Jan-19 18:20N 01°13' E 103°49'0 0.1
2015-Jan-19 17:20N 01°13' E 103°49'0 0.1
2015-Jan-19 16:26N 01°13' E 103°49'0 0.1
2015-Jan-19 15:07N 01°13' E 103°49'0 0.0
2015-Jan-19 13:30N 01°13' E 103°49'0 0.1
2015-Jan-19 12:30N 01°13' E 103°49'0 0.1
2015-Jan-19 11:23N 01°13' E 103°49'0 0.1
2015-Jan-19 10:08N 01°13' E 103°49'0 0.0
2015-Jan-19 09:08N 01°13' E 103°49'0 0.0
2015-Jan-19 08:19N 01°13' E 103°49'0 0.0
2015-Jan-19 06:33N 01°13' E 103°49'4 4.3
2015-Jan-19 05:33N 01°14' E 103°54'7 7.3
2015-Jan-19 04:33N 01°16' E 104°01'1211.8
2015-Jan-19 03:31N 01°17' E 104°13'  

Dump ship's entire track history